SWR187 EDDM-LSZH
Flight info
| Callsign | SWR187 |
|---|---|
| Flight time | N/A |
| Altitude | 28000 |
| Route | MERSI4E/08R MERSI Y100 MOMUK Y112 RAVED L856 NEGRA |
| Aircraft | B77W/H-SDE1E2E3FGHIJ2J3J4J5M1RWXY/LB1D1 |
Departure
| Time | 2026-05-06 12:58 |
|---|---|
| Airport | Munich Airport (EDDM) |
Arrival
| Time | N/A |
|---|---|
| Airport | Zürich Airport (LSZH) |
| Time | Latitude | Longitude | Altitude | Speed | Heading |
|---|---|---|---|---|---|
| 2026-05-06 12:32 | 48.35130 | 11.78332 | 1478 ft | 0 kts | 83° |
| 2026-05-06 12:32 | 48.35231 | 11.78315 | 1475 ft | 0 kts | 83° |
| 2026-05-06 12:32 | 48.35267 | 11.78077 | 1475 ft | 0 kts | 263° |
| 2026-05-06 12:45 | 48.35268 | 11.78094 | 1475 ft | 3 kts | 263° |
| 2026-05-06 12:45 | 48.35270 | 11.78125 | 1482 ft | 3 kts | 267° |
| 2026-05-06 12:45 | 48.35250 | 11.78177 | 1475 ft | 4 kts | 349° |
| 2026-05-06 12:46 | 48.35227 | 11.78182 | 1475 ft | 3 kts | 353° |
| 2026-05-06 12:46 | 48.35209 | 11.78185 | 1475 ft | 0 kts | 353° |
| 2026-05-06 12:49 | 48.35248 | 11.78178 | 1475 ft | 15 kts | 353° |
| 2026-05-06 12:50 | 48.35345 | 11.78121 | 1477 ft | 11 kts | 300° |
| 2026-05-06 12:50 | 48.35346 | 11.78010 | 1480 ft | 11 kts | 265° |
| 2026-05-06 12:50 | 48.35337 | 11.77898 | 1490 ft | 11 kts | 263° |
| 2026-05-06 12:50 | 48.35298 | 11.77807 | 1483 ft | 11 kts | 204° |
| 2026-05-06 12:51 | 48.35220 | 11.77807 | 1478 ft | 12 kts | 174° |
| 2026-05-06 12:51 | 48.35139 | 11.77820 | 1480 ft | 12 kts | 174° |
| 2026-05-06 12:51 | 48.35050 | 11.77834 | 1486 ft | 16 kts | 173° |
| 2026-05-06 12:51 | 48.34955 | 11.77850 | 1479 ft | 13 kts | 173° |
| 2026-05-06 12:52 | 48.34866 | 11.77865 | 1487 ft | 13 kts | 173° |
| 2026-05-06 12:52 | 48.34776 | 11.77880 | 1487 ft | 13 kts | 173° |
| 2026-05-06 12:52 | 48.34686 | 11.77887 | 1480 ft | 13 kts | 196° |
| 2026-05-06 12:52 | 48.34652 | 11.77770 | 1476 ft | 13 kts | 265° |
| 2026-05-06 12:53 | 48.34645 | 11.77633 | 1483 ft | 13 kts | 263° |
| 2026-05-06 12:53 | 48.34632 | 11.77487 | 1488 ft | 19 kts | 263° |
| 2026-05-06 12:53 | 48.34615 | 11.77276 | 1482 ft | 21 kts | 263° |
| 2026-05-06 12:53 | 48.34598 | 11.77063 | 1486 ft | 21 kts | 263° |
| 2026-05-06 12:54 | 48.34581 | 11.76849 | 1479 ft | 21 kts | 263° |
| 2026-05-06 12:54 | 48.34565 | 11.76636 | 1478 ft | 21 kts | 263° |
| 2026-05-06 12:54 | 48.34548 | 11.76422 | 1480 ft | 21 kts | 263° |
| 2026-05-06 12:54 | 48.34533 | 11.76212 | 1490 ft | 21 kts | 264° |
| 2026-05-06 12:55 | 48.34518 | 11.76003 | 1486 ft | 9 kts | 264° |
| 2026-05-06 12:55 | 48.34509 | 11.75899 | 1479 ft | 21 kts | 263° |
| 2026-05-06 12:55 | 48.34492 | 11.75680 | 1478 ft | 21 kts | 263° |
| 2026-05-06 12:55 | 48.34475 | 11.75458 | 1490 ft | 21 kts | 263° |
| 2026-05-06 12:56 | 48.34458 | 11.75236 | 1490 ft | 21 kts | 263° |
| 2026-05-06 12:56 | 48.34381 | 11.75072 | 1485 ft | 21 kts | 185° |
| 2026-05-06 12:56 | 48.34233 | 11.75092 | 1481 ft | 21 kts | 174° |
| 2026-05-06 12:56 | 48.34104 | 11.75117 | 1484 ft | 10 kts | 167° |
| 2026-05-06 12:57 | 48.34074 | 11.75169 | 1482 ft | 7 kts | 96° |
| 2026-05-06 12:57 | 48.34076 | 11.75206 | 1479 ft | 0 kts | 83° |
| 2026-05-06 12:57 | 48.34091 | 11.75398 | 1479 ft | 56 kts | 83° |
| 2026-05-06 12:57 | 48.34170 | 11.76421 | 1490 ft | 135 kts | 83° |
| 2026-05-06 12:58 | 48.34298 | 11.78122 | 1530 ft | 189 kts | 83° |
| 2026-05-06 12:58 | 48.34433 | 11.80147 | 2144 ft | 201 kts | 84° |
| 2026-05-06 12:58 | 48.34605 | 11.82464 | 2340 ft | 243 kts | 83° |
| 2026-05-06 12:58 | 48.34808 | 11.84981 | 3503 ft | 231 kts | 83° |
| 2026-05-06 12:59 | 48.34990 | 11.87324 | 4803 ft | 225 kts | 84° |
| 2026-05-06 12:59 | 48.35174 | 11.89731 | 5486 ft | 240 kts | 86° |
| 2026-05-06 12:59 | 48.35369 | 11.92295 | 6104 ft | 254 kts | 86° |
| 2026-05-06 12:59 | 48.35266 | 11.94956 | 6619 ft | 259 kts | 112° |
| 2026-05-06 13:00 | 48.34285 | 11.97160 | 6737 ft | 254 kts | 142° |
| 2026-05-06 13:00 | 48.32895 | 11.98720 | 6778 ft | 250 kts | 150° |
| 2026-05-06 13:00 | 48.31261 | 11.99442 | 6784 ft | 248 kts | 184° |
| 2026-05-06 13:00 | 48.29655 | 11.98557 | 6778 ft | 252 kts | 217° |
| 2026-05-06 13:01 | 48.28492 | 11.96582 | 6775 ft | 257 kts | 236° |
| 2026-05-06 13:01 | 48.27717 | 11.94133 | 6857 ft | 264 kts | 247° |
| 2026-05-06 13:01 | 48.27092 | 11.91490 | 7607 ft | 271 kts | 249° |
| 2026-05-06 13:01 | 48.26492 | 11.88799 | 8574 ft | 273 kts | 249° |
| 2026-05-06 13:02 | 48.25891 | 11.86089 | 9538 ft | 275 kts | 249° |
| 2026-05-06 13:02 | 48.25280 | 11.83342 | 10346 ft | 283 kts | 249° |
| 2026-05-06 13:02 | 48.24619 | 11.80413 | 10658 ft | 311 kts | 249° |
| 2026-05-06 13:02 | 48.23888 | 11.77204 | 10918 ft | 340 kts | 249° |
| 2026-05-06 13:03 | 48.23108 | 11.73792 | 11773 ft | 349 kts | 249° |
| 2026-05-06 13:03 | 48.22316 | 11.70340 | 12965 ft | 351 kts | 249° |
| 2026-05-06 13:03 | 48.21518 | 11.66869 | 14158 ft | 353 kts | 248° |
| 2026-05-06 13:03 | 48.20708 | 11.63363 | 15150 ft | 359 kts | 248° |
| 2026-05-06 13:04 | 48.19880 | 11.59798 | 16097 ft | 366 kts | 248° |
| 2026-05-06 13:04 | 48.19033 | 11.56163 | 17062 ft | 372 kts | 247° |
| 2026-05-06 13:04 | 48.18182 | 11.52524 | 18048 ft | 377 kts | 247° |
| 2026-05-06 13:04 | 48.17310 | 11.48797 | 18695 ft | 381 kts | 247° |
| 2026-05-06 13:05 | 48.16430 | 11.45040 | 18770 ft | 384 kts | 247° |
| 2026-05-06 13:05 | 48.15541 | 11.41254 | 19204 ft | 388 kts | 247° |
| 2026-05-06 13:05 | 48.14654 | 11.37481 | 20149 ft | 389 kts | 247° |
| 2026-05-06 13:05 | 48.13752 | 11.33650 | 21138 ft | 391 kts | 247° |
| 2026-05-06 13:06 | 48.12844 | 11.29805 | 22034 ft | 395 kts | 246° |
| 2026-05-06 13:06 | 48.11921 | 11.25905 | 22854 ft | 400 kts | 246° |
| 2026-05-06 13:06 | 48.10983 | 11.21952 | 23608 ft | 405 kts | 246° |
| 2026-05-06 13:06 | 48.10039 | 11.17973 | 24371 ft | 406 kts | 246° |
| 2026-05-06 13:07 | 48.09403 | 11.15294 | 25068 ft | 402 kts | 246° |
| 2026-05-06 13:07 | 48.08480 | 11.11402 | 26205 ft | 394 kts | 246° |
| 2026-05-06 13:07 | 48.07568 | 11.07566 | 27227 ft | 391 kts | 246° |
| 2026-05-06 13:07 | 48.06658 | 11.03754 | 27761 ft | 388 kts | 246° |
| 2026-05-06 13:08 | 48.05750 | 10.99963 | 27772 ft | 388 kts | 246° |
| 2026-05-06 13:08 | 48.04841 | 10.96177 | 27784 ft | 387 kts | 246° |
| 2026-05-06 13:08 | 48.03930 | 10.92387 | 27783 ft | 387 kts | 246° |
| 2026-05-06 13:08 | 48.03017 | 10.88596 | 27781 ft | 388 kts | 246° |
| 2026-05-06 13:09 | 48.02103 | 10.84807 | 27784 ft | 388 kts | 246° |
| 2026-05-06 13:09 | 48.01199 | 10.81067 | 27779 ft | 388 kts | 246° |
| 2026-05-06 13:09 | 48.00281 | 10.77272 | 27781 ft | 389 kts | 246° |
| 2026-05-06 13:09 | 47.99351 | 10.73431 | 27779 ft | 389 kts | 246° |
| 2026-05-06 13:10 | 47.98563 | 10.70186 | 27777 ft | 389 kts | 246° |
| 2026-05-06 13:10 | 47.97687 | 10.66582 | 27776 ft | 389 kts | 246° |
| 2026-05-06 13:10 | 47.96764 | 10.62787 | 27775 ft | 388 kts | 246° |
| 2026-05-06 13:10 | 47.95855 | 10.59052 | 27760 ft | 378 kts | 246° |
| 2026-05-06 13:11 | 47.94972 | 10.55421 | 27775 ft | 368 kts | 245° |
| 2026-05-06 13:11 | 47.94100 | 10.51853 | 27788 ft | 366 kts | 245° |
| 2026-05-06 13:11 | 47.93228 | 10.48299 | 27791 ft | 364 kts | 245° |
| 2026-05-06 13:11 | 47.92364 | 10.44779 | 27740 ft | 357 kts | 245° |
| 2026-05-06 13:12 | 47.91514 | 10.41319 | 27438 ft | 354 kts | 245° |
| 2026-05-06 13:12 | 47.90670 | 10.37893 | 27030 ft | 351 kts | 245° |
| 2026-05-06 13:12 | 47.89831 | 10.34493 | 26595 ft | 348 kts | 245° |
| 2026-05-06 13:12 | 47.88997 | 10.31116 | 26125 ft | 347 kts | 245° |
| 2026-05-06 13:13 | 47.88159 | 10.27737 | 25678 ft | 349 kts | 245° |
| 2026-05-06 13:13 | 47.87307 | 10.24309 | 25213 ft | 358 kts | 245° |
| 2026-05-06 13:13 | 47.86430 | 10.20786 | 24752 ft | 366 kts | 246° |
| 2026-05-06 13:13 | 47.85544 | 10.17221 | 24258 ft | 368 kts | 246° |
| 2026-05-06 13:14 | 47.84656 | 10.13650 | 23767 ft | 367 kts | 246° |
| 2026-05-06 13:14 | 47.83771 | 10.10091 | 23260 ft | 366 kts | 246° |
| 2026-05-06 13:14 | 47.82887 | 10.06544 | 22705 ft | 365 kts | 246° |
| 2026-05-06 13:14 | 47.82004 | 10.03010 | 22189 ft | 363 kts | 246° |
| 2026-05-06 13:15 | 47.81127 | 9.99504 | 21711 ft | 360 kts | 246° |
| 2026-05-06 13:15 | 47.80252 | 9.96013 | 21163 ft | 360 kts | 246° |
| 2026-05-06 13:15 | 47.79373 | 9.92517 | 20670 ft | 363 kts | 246° |
| 2026-05-06 13:15 | 47.78499 | 9.89044 | 20197 ft | 365 kts | 246° |
| 2026-05-06 13:16 | 47.77604 | 9.85490 | 19709 ft | 367 kts | 246° |
| 2026-05-06 13:16 | 47.76691 | 9.81929 | 19124 ft | 372 kts | 245° |
| 2026-05-06 13:16 | 47.75717 | 9.78340 | 18514 ft | 377 kts | 245° |
| 2026-05-06 13:16 | 47.74715 | 9.74726 | 17965 ft | 379 kts | 245° |
| 2026-05-06 13:17 | 47.73708 | 9.71102 | 17398 ft | 380 kts | 245° |
| 2026-05-06 13:17 | 47.72725 | 9.67547 | 16859 ft | 363 kts | 245° |
| 2026-05-06 13:17 | 47.71765 | 9.64074 | 16399 ft | 374 kts | 245° |
| 2026-05-06 13:17 | 47.70740 | 9.60384 | 15921 ft | 397 kts | 245° |
| 2026-05-06 13:18 | 47.69669 | 9.56519 | 15577 ft | 418 kts | 245° |
| 2026-05-06 13:18 | 47.68560 | 9.52507 | 15568 ft | 414 kts | 245° |
| 2026-05-06 13:18 | 47.67501 | 9.48658 | 15661 ft | 395 kts | 245° |
| 2026-05-06 13:18 | 47.66495 | 9.45004 | 15246 ft | 366 kts | 245° |
| 2026-05-06 13:19 | 47.65577 | 9.41673 | 14887 ft | 334 kts | 244° |
| 2026-05-06 13:19 | 47.64716 | 9.38570 | 14121 ft | 320 kts | 244° |
| 2026-05-06 13:19 | 47.63872 | 9.35545 | 13067 ft | 316 kts | 244° |
| 2026-05-06 13:19 | 47.63032 | 9.32547 | 12033 ft | 312 kts | 244° |
| 2026-05-06 13:20 | 47.62225 | 9.29654 | 11625 ft | 300 kts | 244° |
| 2026-05-06 13:20 | 47.61425 | 9.26792 | 11231 ft | 300 kts | 245° |
| 2026-05-06 13:20 | 47.60632 | 9.23958 | 10807 ft | 294 kts | 245° |
| 2026-05-06 13:20 | 47.59854 | 9.21184 | 10169 ft | 291 kts | 245° |
| 2026-05-06 13:21 | 47.59132 | 9.18387 | 9383 ft | 291 kts | 253° |
| 2026-05-06 13:21 | 47.58722 | 9.15461 | 8673 ft | 288 kts | 259° |
| 2026-05-06 13:21 | 47.58340 | 9.12583 | 7961 ft | 280 kts | 250° |
| 2026-05-06 13:21 | 47.57383 | 9.10189 | 7404 ft | 266 kts | 226° |
| 2026-05-06 13:22 | 47.55909 | 9.08686 | 7028 ft | 251 kts | 206° |
| 2026-05-06 13:22 | 47.54306 | 9.08043 | 6979 ft | 228 kts | 196° |
| 2026-05-06 13:22 | 47.52953 | 9.07082 | 6969 ft | 216 kts | 230° |
| 2026-05-06 13:22 | 47.52071 | 9.05515 | 6992 ft | 223 kts | 231° |
| 2026-05-06 13:23 | 47.51008 | 9.03734 | 7002 ft | 231 kts | 230° |
| 2026-05-06 13:23 | 47.49945 | 9.02028 | 6995 ft | 226 kts | 229° |
| 2026-05-06 13:23 | 47.48880 | 9.00356 | 6985 ft | 220 kts | 228° |
| 2026-05-06 13:23 | 47.47816 | 8.98705 | 6802 ft | 226 kts | 228° |
| 2026-05-06 13:24 | 47.46707 | 8.97001 | 6538 ft | 233 kts | 229° |
| 2026-05-06 13:24 | 47.45603 | 8.95312 | 6400 ft | 224 kts | 229° |
| 2026-05-06 13:24 | 47.44555 | 8.93715 | 6302 ft | 209 kts | 229° |
| 2026-05-06 13:24 | 47.43705 | 8.92029 | 6183 ft | 203 kts | 251° |
| 2026-05-06 13:25 | 47.43546 | 8.89981 | 6010 ft | 202 kts | 268° |
| 2026-05-06 13:25 | 47.43541 | 8.87880 | 5777 ft | 207 kts | 269° |
| 2026-05-06 13:25 | 47.43625 | 8.85741 | 5460 ft | 206 kts | 272° |
| 2026-05-06 13:25 | 47.43756 | 8.83709 | 5176 ft | 190 kts | 272° |
| 2026-05-06 13:26 | 47.43888 | 8.81876 | 5016 ft | 169 kts | 272° |
| 2026-05-06 13:26 | 47.44007 | 8.80202 | 4867 ft | 163 kts | 273° |
| 2026-05-06 13:26 | 47.44128 | 8.78521 | 4645 ft | 166 kts | 274° |
| 2026-05-06 13:26 | 47.44249 | 8.76842 | 4392 ft | 162 kts | 273° |
| 2026-05-06 13:27 | 47.44360 | 8.75272 | 4134 ft | 144 kts | 273° |
| 2026-05-06 13:27 | 47.44461 | 8.73837 | 3970 ft | 143 kts | 273° |
| 2026-05-06 13:27 | 47.44568 | 8.72346 | 3772 ft | 148 kts | 273° |
| 2026-05-06 13:27 | 47.44674 | 8.70855 | 3554 ft | 144 kts | 272° |
| 2026-05-06 13:28 | 47.44776 | 8.69412 | 3311 ft | 137 kts | 272° |
| 2026-05-06 13:28 | 47.44874 | 8.68055 | 3127 ft | 131 kts | 272° |
| 2026-05-06 13:28 | 47.44968 | 8.66747 | 2938 ft | 127 kts | 273° |
| 2026-05-06 13:28 | 47.45062 | 8.65419 | 2757 ft | 132 kts | 274° |
| 2026-05-06 13:29 | 47.45161 | 8.64030 | 2540 ft | 140 kts | 273° |
| 2026-05-06 13:29 | 47.45262 | 8.62595 | 2281 ft | 136 kts | 276° |
| 2026-05-06 13:29 | 47.45363 | 8.61213 | 2122 ft | 141 kts | 276° |
| 2026-05-06 13:29 | 47.45459 | 8.59842 | 1878 ft | 127 kts | 276° |
| 2026-05-06 13:30 | 47.45558 | 8.58478 | 1714 ft | 145 kts | 275° |
| 2026-05-06 13:30 | 47.45666 | 8.56973 | 1477 ft | 145 kts | 274° |
| 2026-05-06 13:30 | 47.45763 | 8.55599 | 1417 ft | 122 kts | 274° |
| 2026-05-06 13:30 | 47.45859 | 8.54247 | 1479 ft | 165 kts | 275° |
| 2026-05-06 13:31 | 47.45971 | 8.52479 | 2783 ft | 179 kts | 273° |
| 2026-05-06 13:31 | 47.45987 | 8.50919 | 3258 ft | 223 kts | 266° |